Time;durP1;ratioP1;P1;durP2;ratioP2;P2;SDS_P1;SDS_P2;PMS_P1;PMS_P2;Temp;Humidity;BMP_temperature;BMP_pressure;BME280_temperature;BME280_humidity;BME280_pressure;Samples;Min_cycle;Max_cycle;Signal;HPM_P1;HPM_P2
2022/04/06 00:02:11;;;;;;;1.83;1.83;;;;;;;11.33;100.00;99416.16;5032121;28;20977;-76
2022/04/06 00:04:38;;;;;;;0.60;0.60;;;;;;;11.32;100.00;99406.44;5023773;28;20467;-76
2022/04/06 00:07:05;;;;;;;0.50;0.50;;;;;;;11.42;100.00;99402.44;5027805;28;20455;-77
2022/04/06 00:09:32;;;;;;;0.33;0.23;;;;;;;11.42;100.00;99402.44;5015501;28;20821;-76
2022/04/06 00:11:58;;;;;;;0.53;0.50;;;;;;;11.33;100.00;99397.53;5014768;28;20852;-76
2022/04/06 00:14:25;;;;;;;0.50;0.50;;;;;;;11.34;100.00;99395.72;5013041;28;20523;-77
2022/04/06 00:16:52;;;;;;;0.30;0.20;;;;;;;11.37;100.00;99390.25;5035177;28;20502;-76
2022/04/06 00:19:18;;;;;;;0.40;0.33;;;;;;;11.45;100.00;99385.47;5049831;28;20444;-76
2022/04/06 00:21:45;;;;;;;0.30;0.20;;;;;;;11.39;100.00;99383.09;5027636;28;20449;-76
2022/04/06 00:24:12;;;;;;;0.30;0.20;;;;;;;11.46;100.00;99379.19;5032182;28;20482;-76
2022/04/06 00:26:39;;;;;;;0.30;0.20;;;;;;;11.41;100.00;99376.75;5032386;28;20547;-76
2022/04/06 00:29:06;;;;;;;0.30;0.20;;;;;;;11.40;100.00;99364.41;5014558;28;20509;-76
2022/04/06 00:31:32;;;;;;;0.30;0.20;;;;;;;11.41;100.00;99371.44;5032106;28;20495;-76
2022/04/06 00:33:59;;;;;;;0.40;0.40;;;;;;;11.40;100.00;99369.72;5014286;28;20988;-77
2022/04/06 00:36:26;;;;;;;2.50;1.67;;;;;;;11.44;100.00;99373.09;5012336;28;20463;-76
2022/04/06 00:38:52;;;;;;;0.60;0.60;;;;;;;11.43;100.00;99371.38;5032112;28;20444;-77
2022/04/06 00:41:20;;;;;;;0.30;0.20;;;;;;;11.46;100.00;99368.56;5032184;28;20820;-77
2022/04/06 00:44:18;;;;;;;1.03;0.90;;;;;;;11.48;100.00;99364.88;5014703;28;20475;-76
2022/04/06 00:46:45;;;;;;;0.30;0.20;;;;;;;11.44;100.00;99368.63;5008212;28;21145;-76
2022/04/06 00:49:14;;;;;;;0.30;0.20;;;;;;;11.52;100.00;99354.97;5014098;28;20526;-76
2022/04/06 00:51:46;;;;;;;0.50;0.50;;;;;;;11.46;100.00;99365.91;5014581;28;20664;-76
2022/04/06 00:54:15;;;;;;;0.30;0.20;;;;;;;11.38;100.00;99363.63;5029013;28;21050;-76
2022/04/06 00:56:43;;;;;;;0.30;0.20;;;;;;;11.48;100.00;99369.34;5004425;28;20491;-76
2022/04/06 00:59:10;;;;;;;0.30;0.20;;;;;;;11.44;100.00;99352.66;5031765;28;20537;-76
2022/04/06 01:01:37;;;;;;;0.40;0.40;;;;;;;11.40;100.00;99361.75;5031902;28;20466;-77
2022/04/06 01:04:04;;;;;;;0.30;0.20;;;;;;;11.34;100.00;99350.50;5014974;28;20475;-76
2022/04/06 01:06:31;;;;;;;0.30;0.20;;;;;;;11.25;100.00;99341.16;5010394;28;20533;-77
2022/04/06 01:08:58;;;;;;;0.30;0.20;;;;;;;11.33;100.00;99348.78;5017877;28;20481;-77
2022/04/06 01:11:24;;;;;;;0.30;0.20;;;;;;;11.33;100.00;99336.34;5024923;28;20912;-76
2022/04/06 01:13:53;;;;;;;0.40;0.40;;;;;;;11.31;100.00;99337.34;5020037;28;20471;-77
2022/04/06 01:16:19;;;;;;;0.30;0.20;;;;;;;11.31;100.00;99337.34;5017779;28;20527;-77
2022/04/06 01:18:46;;;;;;;0.30;0.20;;;;;;;11.37;100.00;99331.72;5017981;28;20501;-77
2022/04/06 01:21:13;;;;;;;0.30;0.20;;;;;;;11.44;100.00;99320.72;5033572;28;20451;-77
2022/04/06 01:23:43;;;;;;;0.30;0.20;;;;;;;11.48;100.00;99321.44;5032444;28;20479;-76
2022/04/06 01:26:11;;;;;;;0.30;0.20;;;;;;;11.40;100.00;99323.63;5017749;28;20497;-77
2022/04/06 01:28:38;;;;;;;0.30;0.20;;;;;;;11.36;100.00;99322.03;5001282;28;20508;-76
2022/04/06 01:31:06;;;;;;;0.30;0.20;;;;;;;11.40;100.00;99321.81;5017518;28;20452;-77
2022/04/06 01:33:33;;;;;;;0.30;0.30;;;;;;;11.38;100.00;99320.19;5034781;28;20952;-76
2022/04/06 01:36:00;;;;;;;3.50;1.33;;;;;;;11.25;100.00;99325.22;5032807;28;20968;-77
2022/04/06 01:38:27;;;;;;;0.30;0.20;;;;;;;11.23;100.00;99317.28;5034876;28;20451;-77
2022/04/06 01:40:54;;;;;;;0.30;0.20;;;;;;;11.26;100.00;99325.13;5035329;28;20456;-77
2022/04/06 01:43:21;;;;;;;0.30;0.20;;;;;;;11.24;100.00;99323.50;5020754;28;20447;-77
2022/04/06 01:45:48;;;;;;;0.30;0.20;;;;;;;11.24;100.00;99312.84;5035331;28;20558;-77
2022/04/06 01:48:16;;;;;;;0.30;0.20;;;;;;;11.27;100.00;99324.19;4998610;28;20535;-77
2022/04/06 01:53:29;;;;;;;0.30;0.20;;;;;;;11.37;100.00;99315.75;5034991;28;20554;-77
2022/04/06 01:55:56;;;;;;;0.30;0.20;;;;;;;11.37;100.00;99321.94;5017227;28;20498;-77
2022/04/06 01:58:23;;;;;;;0.30;0.20;;;;;;;11.33;100.00;99309.72;5017530;28;20456;-77
2022/04/06 02:00:51;;;;;;;0.37;0.30;;;;;;;11.39;99.92;99311.25;5014379;28;20510;-77
2022/04/06 02:03:18;;;;;;;0.30;0.20;;;;;;;11.49;100.00;99308.06;5007313;28;20857;-77
2022/04/06 02:05:46;;;;;;;0.30;0.20;;;;;;;11.39;99.88;99305.94;5025123;28;20502;-77
2022/04/06 02:08:12;;;;;;;0.30;0.20;;;;;;;11.43;100.00;99307.50;5034613;28;20479;-77
2022/04/06 02:10:39;;;;;;;0.50;0.50;;;;;;;11.36;100.00;99303.41;5033119;28;20525;-77
2022/04/06 02:13:06;;;;;;;2.30;0.97;;;;;;;11.47;99.86;99307.28;5016646;28;20491;-77
2022/04/06 02:15:33;;;;;;;0.93;0.93;;;;;;;11.42;100.00;99301.31;5031591;28;20467;-77
2022/04/06 02:18:00;;;;;;;0.30;0.20;;;;;;;11.37;100.00;99300.66;5034113;28;20456;-77
2022/04/06 02:20:27;;;;;;;0.30;0.20;;;;;;;11.37;100.00;99298.00;5021244;28;20820;-77
2022/04/06 02:22:53;;;;;;;1.67;1.57;;;;;;;11.29;100.00;99300.19;5012953;28;20444;-77
2022/04/06 02:25:20;;;;;;;0.40;0.30;;;;;;;11.25;100.00;99294.16;5027860;28;20880;-77
2022/04/06 02:27:51;;;;;;;0.30;0.20;;;;;;;11.28;100.00;99296.66;5026347;28;20452;-77
2022/04/06 02:30:19;;;;;;;0.30;0.30;;;;;;;11.32;100.00;99300.03;5034381;28;20451;-77
2022/04/06 02:32:47;;;;;;;0.30;0.20;;;;;;;11.25;100.00;99306.59;5017731;28;20484;-77
2022/04/06 02:35:13;;;;;;;0.30;0.20;;;;;;;11.24;100.00;99300.41;5002657;28;20534;-77
2022/04/06 02:37:41;;;;;;;0.30;0.20;;;;;;;11.17;100.00;99290.97;5016495;28;20447;-77
2022/04/06 02:40:10;;;;;;;0.30;0.20;;;;;;;11.29;100.00;99292.19;5008323;28;20451;-77
2022/04/06 02:42:37;;;;;;;0.30;0.20;;;;;;;11.24;100.00;99292.44;5033884;28;20444;-76
2022/04/06 02:45:04;;;;;;;0.30;0.20;;;;;;;11.26;100.00;99289.69;5033628;28;20521;-77
2022/04/06 02:47:30;;;;;;;0.30;0.20;;;;;;;11.33;100.00;99284.94;5033986;28;20548;-77
2022/04/06 02:49:57;;;;;;;0.30;0.20;;;;;;;11.37;100.00;99286.50;5033737;28;20487;-76
2022/04/06 02:52:24;;;;;;;0.30;0.20;;;;;;;11.30;100.00;99291.25;5033694;28;20533;-77
2022/04/06 02:54:52;;;;;;;0.30;0.20;;;;;;;11.27;100.00;99297.59;5033500;28;20814;-77
2022/04/06 02:57:18;;;;;;;0.30;0.20;;;;;;;11.32;100.00;99291.19;5016206;28;20487;-77
2022/04/06 02:59:45;;;;;;;0.30;0.20;;;;;;;11.32;100.00;99289.38;5033481;28;20870;-77
2022/04/06 03:02:11;;;;;;;0.30;0.20;;;;;;;11.31;100.00;99290.31;5016176;28;20891;-77
2022/04/06 03:04:38;;;;;;;0.30;0.20;;;;;;;11.28;100.00;99301.13;5030441;28;20464;-77
2022/04/06 03:07:05;;;;;;;0.43;0.43;;;;;;;11.30;100.00;99291.25;5026457;28;20865;-77
2022/04/06 03:09:31;;;;;;;0.30;0.20;;;;;;;11.33;100.00;99285.78;5033440;28;20941;-77
2022/04/06 03:11:59;;;;;;;0.30;0.20;;;;;;;11.31;100.00;99295.66;5033363;28;20487;-77
2022/04/06 03:14:26;;;;;;;1.27;1.17;;;;;;;11.28;100.00;99287.81;5030755;28;20832;-76
2022/04/06 03:16:52;;;;;;;0.50;0.50;;;;;;;11.39;100.00;99290.84;5015571;28;20456;-77
2022/04/06 03:19:19;;;;;;;0.30;0.20;;;;;;;11.32;100.00;99289.38;5033258;28;20461;-77
2022/04/06 03:21:46;;;;;;;0.30;0.20;;;;;;;11.21;100.00;99300.53;5029288;28;20456;-77
2022/04/06 03:24:12;;;;;;;0.30;0.20;;;;;;;11.27;100.00;99296.75;5032865;28;20980;-78
2022/04/06 03:26:39;;;;;;;0.80;0.80;;;;;;;11.26;100.00;99285.22;5016300;28;20513;-77
2022/04/06 03:29:05;;;;;;;0.30;0.20;;;;;;;11.29;100.00;99289.53;5014909;28;20455;-77
2022/04/06 03:31:32;;;;;;;2.87;1.13;;;;;;;11.21;100.00;99275.72;5032664;28;20459;-77
2022/04/06 03:33:59;;;;;;;0.30;0.20;;;;;;;11.22;100.00;99286.28;5032619;28;20927;-77
2022/04/06 03:36:25;;;;;;;3.40;2.00;;;;;;;11.21;100.00;99283.72;5030944;28;20941;-77
2022/04/06 03:38:52;;;;;;;0.30;0.20;;;;;;;11.22;100.00;99273.00;5023185;28;20530;-77
2022/04/06 03:41:18;;;;;;;0.30;0.20;;;;;;;11.20;100.00;99284.66;5029414;28;20452;-77
2022/04/06 03:43:45;;;;;;;0.30;0.20;;;;;;;11.20;100.00;99284.66;5032574;28;20503;-77
2022/04/06 03:46:13;;;;;;;0.30;0.20;;;;;;;11.30;100.00;99282.41;5033001;28;20492;-77
2022/04/06 03:48:40;;;;;;;0.30;0.20;;;;;;;11.16;100.00;99281.28;5015363;28;20452;-77
2022/04/06 03:51:06;;;;;;;0.30;0.20;;;;;;;11.12;100.00;99285.03;5015322;28;21028;-77
2022/04/06 03:53:33;;;;;;;0.30;0.20;;;;;;;11.04;100.00;99271.22;5032231;28;20534;-77
2022/04/06 03:55:59;;;;;;;0.30;0.30;;;;;;;11.11;100.00;99282.44;5032434;28;20531;-77
2022/04/06 03:58:26;;;;;;;0.30;0.20;;;;;;;11.11;100.00;99270.00;5032597;28;20487;-76
2022/04/06 04:00:53;;;;;;;0.30;0.20;;;;;;;11.08;100.00;99285.22;5027928;28;20996;-77
2022/04/06 04:03:19;;;;;;;0.37;0.30;;;;;;;11.11;98.36;99280.66;5004398;28;20869;-77
2022/04/06 04:05:47;;;;;;;0.30;0.20;;;;;;;11.12;97.46;99287.69;5022592;28;20554;-77
2022/04/06 04:08:13;;;;;;;0.30;0.20;;;;;;;11.07;95.53;99287.00;5020680;28;20510;-77
2022/04/06 04:10:40;;;;;;;0.30;0.20;;;;;;;11.11;94.65;99285.09;5025741;28;20515;-78
2022/04/06 04:13:06;;;;;;;0.53;0.53;;;;;;;11.11;93.72;99291.28;5024491;28;20495;-77
2022/04/06 04:15:33;;;;;;;0.30;0.20;;;;;;;11.06;93.31;99281.78;5013776;28;20467;-77
2022/04/06 04:18:00;;;;;;;0.30;0.20;;;;;;;11.16;92.71;99272.44;5032431;28;20938;-77
2022/04/06 04:20:26;;;;;;;1.90;1.50;;;;;;;11.06;92.06;99271.13;5014449;28;20574;-77
2022/04/06 04:22:53;;;;;;;0.30;0.20;;;;;;;11.17;92.05;99276.81;5010801;28;20494;-77
2022/04/06 04:25:20;;;;;;;0.30;0.20;;;;;;;11.04;92.14;99273.00;5032191;28;20472;-77
2022/04/06 04:27:46;;;;;;;0.40;0.40;;;;;;;11.02;92.42;99272.22;5014771;28;20452;-77
2022/04/06 04:30:13;;;;;;;0.30;0.20;;;;;;;11.00;92.43;99272.28;5026544;28;20530;-77
2022/04/06 04:32:39;;;;;;;0.30;0.20;;;;;;;10.92;93.15;99277.09;5014626;28;20557;-78
2022/04/06 04:35:08;;;;;;;0.30;0.20;;;;;;;11.02;92.42;99269.56;5012889;28;20900;-77
2022/04/06 04:37:36;;;;;;;0.30;0.20;;;;;;;11.04;92.91;99270.34;5032129;28;20440;-77
2022/04/06 04:40:04;;;;;;;0.30;0.20;;;;;;;11.16;92.68;99281.28;5022946;28;20885;-77
2022/04/06 04:42:30;;;;;;;1.37;1.27;;;;;;;11.14;92.49;99277.81;5039415;28;20504;-77
2022/04/06 04:44:57;;;;;;;0.30;0.20;;;;;;;11.00;92.77;99277.63;5021433;28;21038;-77
2022/04/06 04:47:24;;;;;;;1.03;1.03;;;;;;;10.90;91.54;99265.69;5026629;28;20491;-77
2022/04/06 04:49:50;;;;;;;0.40;0.40;;;;;;;10.73;91.20;99258.47;5038490;28;20952;-78
2022/04/06 04:52:17;;;;;;;0.30;0.20;;;;;;;10.90;91.69;99271.00;5038832;28;20520;-78
2022/04/06 04:54:43;;;;;;;0.30;0.20;;;;;;;10.91;91.24;99270.91;5038746;28;20471;-78
2022/04/06 04:57:10;;;;;;;0.30;0.20;;;;;;;11.06;90.39;99273.78;5038941;28;20451;-78
2022/04/06 04:59:37;;;;;;;0.30;0.20;;;;;;;10.99;89.82;99275.91;5021411;28;20518;-78
2022/04/06 05:02:03;;;;;;;0.40;0.30;;;;;;;10.93;89.63;99276.16;5037951;28;20505;-78
2022/04/06 05:04:30;;;;;;;0.30;0.20;;;;;;;10.89;89.75;99266.59;5023247;28;20472;-78
2022/04/06 05:06:57;;;;;;;0.30;0.20;;;;;;;10.83;89.19;99277.53;5031352;28;20447;-77
2022/04/06 05:09:24;;;;;;;0.30;0.20;;;;;;;10.75;89.35;99269.91;5007219;28;20502;-78
2022/04/06 05:11:50;;;;;;;0.30;0.20;;;;;;;10.83;89.20;99281.06;5020091;28;20479;-78
2022/04/06 05:14:17;;;;;;;0.30;0.20;;;;;;;10.86;89.34;99274.72;5011359;28;20488;-77
2022/04/06 05:16:43;;;;;;;0.30;0.20;;;;;;;10.74;89.67;99277.94;5015594;28;20574;-78
2022/04/06 05:19:10;;;;;;;0.30;0.20;;;;;;;10.77;88.96;99281.31;5039285;28;20509;-78
2022/04/06 05:21:37;;;;;;;0.30;0.20;;;;;;;10.78;88.99;99283.03;5017720;28;20824;-78
2022/04/06 05:24:04;;;;;;;1.53;0.60;;;;;;;10.72;89.12;99287.78;5021336;28;20479;-78
2022/04/06 05:26:38;;;;;;;0.40;0.30;;;;;;;10.70;88.35;99281.69;5019525;28;20941;-78
2022/04/06 05:29:05;;;;;;;0.87;0.77;;;;;;;10.77;89.18;99283.13;5030109;28;20813;-78
2022/04/06 05:31:31;;;;;;;0.30;0.20;;;;;;;10.83;88.94;99282.84;5038722;28;21011;-78
2022/04/06 05:33:59;;;;;;;0.30;0.20;;;;;;;10.70;88.77;99271.91;5038512;28;20502;-78
2022/04/06 05:36:28;;;;;;;0.30;0.20;;;;;;;10.85;88.09;99279.19;5036832;28;20948;-78
2022/04/06 05:38:56;;;;;;;0.30;0.20;;;;;;;10.71;88.95;99270.13;5021456;28;20444;-78
2022/04/06 05:41:23;;;;;;;0.30;0.20;;;;;;;10.71;88.31;99281.63;5025226;28;20444;-78
2022/04/06 05:43:49;;;;;;;0.30;0.20;;;;;;;10.85;88.04;99275.66;5039300;28;21125;-78
2022/04/06 05:46:16;;;;;;;0.30;0.20;;;;;;;10.77;87.90;99291.09;5021720;28;20451;-78
2022/04/06 05:48:43;;;;;;;0.40;0.40;;;;;;;10.80;87.79;99283.84;5019100;28;20445;-78
2022/04/06 05:51:10;;;;;;;0.30;0.20;;;;;;;10.81;87.18;99288.22;5032933;28;20484;-78
2022/04/06 05:53:36;;;;;;;0.30;0.20;;;;;;;10.73;86.74;99258.47;5026767;28;20487;-78
2022/04/06 05:56:04;;;;;;;0.30;0.20;;;;;;;10.83;86.67;99283.72;5035548;28;20467;-78
2022/04/06 05:58:31;;;;;;;0.30;0.20;;;;;;;10.80;87.27;99286.50;5018306;28;20872;-78
2022/04/06 06:00:57;;;;;;;0.73;0.73;;;;;;;10.86;86.37;99288.88;5017954;28;20463;-78
2022/04/06 06:03:24;;;;;;;0.30;0.20;;;;;;;10.88;86.09;99280.84;5035627;28;20475;-78
2022/04/06 06:05:51;;;;;;;0.30;0.20;;;;;;;10.96;85.92;99287.53;5027211;28;20459;-78
2022/04/06 06:08:18;;;;;;;0.30;0.20;;;;;;;10.92;85.39;99288.59;5035762;28;20452;-78
2022/04/06 06:10:44;;;;;;;0.30;0.20;;;;;;;10.87;85.86;99287.94;5016965;28;21000;-78
2022/04/06 06:13:11;;;;;;;0.30;0.20;;;;;;;10.95;85.43;99277.81;5017373;28;20491;-77
2022/04/06 06:15:38;;;;;;;0.30;0.20;;;;;;;10.85;85.71;99259.72;5015529;28;20503;-78
2022/04/06 06:18:05;;;;;;;0.30;0.20;;;;;;;11.03;85.89;99277.47;5015791;28;20448;-77
2022/04/06 06:20:31;;;;;;;0.30;0.20;;;;;;;11.09;85.46;99271.84;5033586;28;20460;-77
2022/04/06 06:22:58;;;;;;;0.93;0.93;;;;;;;11.17;85.04;99272.34;5001402;28;20479;-77
2022/04/06 06:25:24;;;;;;;0.30;0.20;;;;;;;11.10;84.95;99280.69;5016765;28;20574;-78
2022/04/06 06:27:51;;;;;;;0.30;0.20;;;;;;;11.21;85.01;99270.41;5017391;28;20447;-78
2022/04/06 06:30:18;;;;;;;0.30;0.20;;;;;;;11.25;85.11;99282.66;5004253;28;20490;-77
2022/04/06 06:32:45;;;;;;;0.30;0.20;;;;;;;11.33;84.39;99282.25;5017448;28;20549;-77
2022/04/06 06:35:12;;;;;;;0.30;0.20;;;;;;;11.41;84.50;99280.13;5023041;28;21019;-78
2022/04/06 06:37:49;;;;;;;0.30;0.20;;;;;;;11.62;84.76;99279.06;5034969;28;20513;-78
2022/04/06 06:40:18;;;;;;;0.30;0.20;;;;;;;11.60;84.47;99275.59;5010980;28;20493;-78
2022/04/06 06:42:44;;;;;;;0.30;0.20;;;;;;;11.50;84.51;99277.84;5021031;28;20460;-78
2022/04/06 06:45:11;;;;;;;0.30;0.20;;;;;;;11.67;84.64;99285.03;5058017;22;20561;-51
2022/04/06 06:47:42;;;;;;;0.40;0.30;;;;;;;11.55;84.58;99282.97;5046670;28;20483;-51
2022/04/06 06:50:10;;;;;;;0.30;0.20;;;;;;;11.79;84.60;99276.47;5073706;28;20859;-51
2022/04/06 06:52:37;;;;;;;0.30;0.20;;;;;;;11.94;83.53;99281.97;5073496;28;20476;-50
2022/04/06 06:55:09;;;;;;;0.30;0.20;;;;;;;11.84;84.30;99277.09;5073296;28;20511;-50
2022/04/06 06:57:36;;;;;;;0.30;0.20;;;;;;;12.11;83.91;99280.16;5073255;28;20473;-51
2022/04/06 07:00:04;;;;;;;0.30;0.20;;;;;;;11.94;83.18;99277.50;5074180;28;20446;-51
2022/04/06 07:02:31;;;;;;;0.60;0.60;;;;;;;12.00;84.08;99271.00;5073206;28;20450;-51
2022/04/06 07:04:58;;;;;;;0.30;0.20;;;;;;;11.93;82.63;99277.59;5067381;28;20966;-51
2022/04/06 07:07:24;;;;;;;0.40;0.30;;;;;;;11.78;81.74;99273.81;5069961;28;20473;-50
2022/04/06 07:09:51;;;;;;;0.30;0.20;;;;;;;12.07;81.17;99275.09;5073113;28;20454;-51
2022/04/06 07:12:17;;;;;;;0.30;0.20;;;;;;;12.24;79.82;99283.06;5073418;28;20821;-50
2022/04/06 07:14:44;;;;;;;0.40;0.30;;;;;;;12.14;79.85;99279.13;5071067;28;20559;-51
2022/04/06 07:17:10;;;;;;;0.30;0.20;;;;;;;11.96;80.19;99278.28;5073014;28;20450;-51
2022/04/06 07:19:37;;;;;;;0.30;0.20;;;;;;;12.13;79.81;99275.63;5073255;28;20445;-51
2022/04/06 07:22:04;;;;;;;0.30;0.20;;;;;;;12.05;79.52;99264.47;5067347;28;20479;-50
2022/04/06 07:24:30;;;;;;;0.30;0.20;;;;;;;12.09;80.52;99266.06;5073214;28;20446;-51
2022/04/06 07:26:57;;;;;;;0.30;0.20;;;;;;;12.26;79.46;99267.00;5073180;28;20806;-51
2022/04/06 07:29:23;;;;;;;0.30;0.20;;;;;;;12.24;79.48;99258.22;5072675;28;20502;-51
2022/04/06 07:31:50;;;;;;;0.30;0.30;;;;;;;12.10;78.20;99251.81;5072623;28;20934;-51
2022/04/06 07:34:17;;;;;;;0.30;0.20;;;;;;;12.25;78.80;99258.13;5072094;28;21022;-51
2022/04/06 07:36:43;;;;;;;0.30;0.30;;;;;;;12.08;78.35;99256.34;5071005;28;20938;-51
2022/04/06 07:39:10;;;;;;;0.30;0.20;;;;;;;12.11;78.31;99255.31;5072613;28;20999;-51
2022/04/06 07:41:36;;;;;;;0.30;0.20;;;;;;;11.88;79.14;99259.16;5072518;28;20477;-51
2022/04/06 07:44:04;;;;;;;0.30;0.20;;;;;;;12.07;78.99;99251.97;5072637;28;20911;-51
2022/04/06 07:46:31;;;;;;;0.30;0.20;;;;;;;12.06;78.31;99247.59;5072247;28;20879;-51
2022/04/06 07:48:58;;;;;;;0.30;0.20;;;;;;;12.27;76.87;99250.91;5072468;28;20478;-50
2022/04/06 07:51:24;;;;;;;0.40;0.30;;;;;;;12.21;77.56;99247.72;5072282;28;20499;-51
2022/04/06 07:53:51;;;;;;;0.30;0.20;;;;;;;12.45;75.17;99247.28;5072812;28;20543;-51
2022/04/06 07:56:18;;;;;;;0.30;0.20;;;;;;;12.59;75.91;99240.34;5072579;28;20472;-51
2022/04/06 07:58:44;;;;;;;0.30;0.20;;;;;;;12.37;75.53;99249.50;5072512;28;20519;-51
2022/04/06 08:01:11;;;;;;;0.30;0.20;;;;;;;12.41;75.37;99245.72;5072252;28;20446;-51
2022/04/06 08:03:38;;;;;;;0.30;0.20;;;;;;;12.77;74.29;99239.38;5072231;28;20446;-51
2022/04/06 08:06:04;;;;;;;0.50;0.50;;;;;;;12.86;72.89;99248.66;5063374;28;20503;-51
2022/04/06 08:08:32;;;;;;;0.30;0.20;;;;;;;12.83;72.47;99254.16;5072485;28;20880;-51
2022/04/06 08:10:59;;;;;;;0.30;0.20;;;;;;;12.62;74.35;99251.75;5072149;28;20544;-51
2022/04/06 08:13:25;;;;;;;0.40;0.30;;;;;;;12.80;72.41;99241.88;5069042;28;20487;-51
2022/04/06 08:15:53;;;;;;;0.30;0.20;;;;;;;12.86;72.38;99246.00;5071840;28;20453;-51
2022/04/06 08:18:22;;;;;;;0.70;0.60;;;;;;;12.67;71.71;99239.00;5072037;28;20516;-51
2022/04/06 08:20:49;;;;;;;0.30;0.20;;;;;;;12.87;70.37;99253.06;5072236;28;20493;-51
2022/04/06 08:23:17;;;;;;;0.30;0.20;;;;;;;12.62;70.88;99250.88;5068013;28;20449;-51
2022/04/06 08:25:44;;;;;;;0.30;0.20;;;;;;;12.71;71.34;99248.56;5071970;28;20456;-51
2022/04/06 08:28:10;;;;;;;0.30;0.30;;;;;;;12.57;70.08;99240.44;5072306;28;20502;-51
2022/04/06 08:30:42;;;;;;;0.30;0.20;;;;;;;12.62;69.69;99237.53;5072279;28;20446;-51
2022/04/06 08:33:10;;;;;;;3.13;1.63;;;;;;;12.63;69.82;99225.94;5071930;28;20446;-51
2022/04/06 08:35:37;;;;;;;0.30;0.20;;;;;;;12.70;71.18;99236.16;5070308;28;20477;-51
2022/04/06 08:38:04;;;;;;;0.30;0.20;;;;;;;12.79;70.46;99234.81;5072057;28;20469;-51
2022/04/06 08:40:32;;;;;;;0.30;0.20;;;;;;;12.92;70.15;99235.00;5072101;28;20450;-51
2022/04/06 08:42:59;;;;;;;0.40;0.40;;;;;;;12.87;70.54;99227.25;5071810;28;20457;-51
2022/04/06 08:45:27;;;;;;;0.30;0.20;;;;;;;12.92;71.03;99227.00;5071572;28;20458;-51
2022/04/06 08:47:54;;;;;;;0.30;0.20;;;;;;;12.88;71.56;99231.63;5071485;28;20469;-51
2022/04/06 08:50:28;;;;;;;0.50;0.47;;;;;;;12.93;72.31;99221.59;5070882;28;20445;-51
2022/04/06 08:52:56;;;;;;;0.30;0.20;;;;;;;13.22;72.45;99224.47;5071981;28;20868;-51
2022/04/06 08:55:27;;;;;;;0.30;0.30;;;;;;;13.43;71.77;99209.91;5071804;28;20437;-51
2022/04/06 08:57:55;;;;;;;0.30;0.20;;;;;;;13.41;71.81;99211.78;5071700;28;21029;-51
2022/04/06 09:00:22;;;;;;;0.30;0.20;;;;;;;13.39;71.94;99215.50;5071472;28;20454;-51
2022/04/06 09:02:49;;;;;;;0.40;0.30;;;;;;;13.59;71.38;99205.41;5072042;28;20535;-51
2022/04/06 09:05:20;;;;;;;0.30;0.20;;;;;;;13.69;71.18;99204.84;5063633;28;20447;-51
2022/04/06 09:07:56;;;;;;;0.30;0.20;;;;;;;13.50;71.61;99203.25;5071593;28;20492;-51
2022/04/06 09:10:33;;;;;;;0.97;0.97;;;;;;;13.40;72.62;99206.53;5071224;28;20445;-51
2022/04/06 09:13:09;;;;;;;0.30;0.20;;;;;;;13.38;73.25;99200.41;5072185;28;20456;-51
2022/04/06 09:15:37;;;;;;;0.30;0.20;;;;;;;13.30;72.19;99211.56;5069165;28;20446;-51
2022/04/06 09:18:04;;;;;;;1.87;1.73;;;;;;;13.14;73.24;99205.31;5071859;28;20501;-51
2022/04/06 09:20:31;;;;;;;0.30;0.20;;;;;;;13.20;73.65;99202.34;5058380;28;20450;-51
2022/04/06 09:23:03;;;;;;;2.53;2.43;;;;;;;13.36;74.12;99208.53;5067103;28;20503;-51
2022/04/06 09:25:38;;;;;;;0.60;0.60;;;;;;;13.32;73.30;99205.19;5071443;28;20442;-51
2022/04/06 09:28:14;;;;;;;0.30;0.20;;;;;;;13.14;74.19;99200.84;5075122;28;20518;-51
2022/04/06 09:30:43;;;;;;;1.70;1.70;;;;;;;13.19;75.11;99211.31;5075076;28;20445;-51
2022/04/06 09:33:14;;;;;;;9.63;2.20;;;;;;;13.41;74.35;99203.78;5075033;28;20880;-51
2022/04/06 09:35:42;;;;;;;0.30;0.20;;;;;;;13.49;73.98;99206.00;5073361;28;20453;-51
2022/04/06 09:38:14;;;;;;;0.30;0.20;;;;;;;13.20;74.66;99199.69;5075054;28;20836;-51
2022/04/06 09:40:42;;;;;;;0.30;0.20;;;;;;;13.38;74.96;99205.75;5075097;28;20482;-51
2022/04/06 09:43:22;;;;;;;0.30;0.30;;;;;;;13.40;74.68;99204.72;5074695;28;20449;-51
2022/04/06 09:48:51;;;;;;;0.30;0.30;;;;;;;13.53;73.50;99203.06;5074809;28;20531;-51
2022/04/06 09:51:19;;;;;;;0.30;0.20;;;;;;;13.43;74.65;99198.34;5074675;28;20805;-51
2022/04/06 09:53:49;;;;;;;0.30;0.20;;;;;;;13.68;74.85;99203.13;5074669;28;20482;-51
2022/04/06 09:56:19;;;;;;;0.30;0.20;;;;;;;13.65;74.52;99196.16;5074464;28;20511;-51
2022/04/06 09:58:47;;;;;;;0.30;0.30;;;;;;;13.49;72.83;99188.19;5074520;28;20469;-51
2022/04/06 10:01:14;;;;;;;0.30;0.20;;;;;;;13.61;73.86;99192.81;5061429;28;20518;-51
2022/04/06 10:03:48;;;;;;;0.30;0.20;;;;;;;13.76;72.46;99191.03;5074104;28;20442;-51
2022/04/06 10:06:14;;;;;;;0.30;0.20;;;;;;;13.67;71.47;99185.38;5065837;28;20468;-51
2022/04/06 10:08:42;;;;;;;0.30;0.20;;;;;;;13.45;72.31;99173.28;5074253;28;20466;-51
2022/04/06 10:11:10;;;;;;;0.30;0.20;;;;;;;13.68;71.60;99179.94;5074809;28;20500;-51
2022/04/06 10:13:40;;;;;;;2.50;2.40;;;;;;;13.67;72.91;99174.69;5071210;28;20455;-51
2022/04/06 10:16:20;;;;;;;0.30;0.20;;;;;;;13.50;73.98;99170.34;5074514;28;20442;-51
2022/04/06 10:18:48;;;;;;;0.30;0.20;;;;;;;13.47;72.29;99178.53;5074330;28;20489;-51
2022/04/06 10:21:23;;;;;;;0.30;0.20;;;;;;;13.43;72.21;99182.31;5072285;28;20445;-51
2022/04/06 10:24:08;;;;;;;0.30;0.20;;;;;;;13.61;72.49;99175.94;5073724;28;20469;-51
2022/04/06 10:26:57;;;;;;;0.30;0.20;;;;;;;13.74;71.60;99174.25;5075035;28;20480;-51
2022/04/06 10:29:23;;;;;;;0.30;0.20;;;;;;;13.93;70.93;99164.16;5074400;28;20498;-52
2022/04/06 10:31:50;;;;;;;0.30;0.20;;;;;;;14.02;69.58;99175.25;5073971;28;20992;-51
2022/04/06 10:34:30;;;;;;;0.30;0.20;;;;;;;14.03;69.52;99166.28;5074221;28;20515;-51
2022/04/06 10:37:16;;;;;;;0.30;0.20;;;;;;;13.98;68.97;99161.25;5073921;28;20809;-51
2022/04/06 10:39:51;;;;;;;0.30;0.20;;;;;;;13.88;69.55;99152.06;5070610;28;20997;-51
2022/04/06 10:42:29;;;;;;;0.30;0.20;;;;;;;13.98;67.83;99153.22;5064622;28;20519;-51
2022/04/06 10:44:56;;;;;;;0.30;0.20;;;;;;;14.03;67.37;99153.78;5073444;28;20441;-51
2022/04/06 10:47:23;;;;;;;0.30;0.20;;;;;;;13.97;68.15;99148.81;5074009;28;20446;-51
2022/04/06 10:50:20;;;;;;;0.53;0.50;;;;;;;14.06;68.44;99148.25;5073579;28;20536;-51
2022/04/06 10:52:47;;;;;;;0.40;0.37;;;;;;;14.11;68.45;99153.31;5073412;28;20449;-51
2022/04/06 10:55:23;;;;;;;0.30;0.20;;;;;;;14.02;68.19;99153.88;5073708;28;20586;-51
2022/04/06 10:58:02;;;;;;;0.63;0.63;;;;;;;14.04;68.20;99154.66;5073430;28;20511;-51
2022/04/06 11:00:30;;;;;;;0.30;0.20;;;;;;;13.77;68.76;99135.81;5073116;28;20461;-51
2022/04/06 11:03:18;;;;;;;0.30;0.20;;;;;;;14.30;69.55;99145.88;5073047;28;20507;-51
2022/04/06 11:05:50;;;;;;;0.30;0.20;;;;;;;14.24;68.00;99143.59;5064015;28;20449;-51
2022/04/06 11:11:45;;;;;;;0.30;0.20;;;;;;;14.41;67.16;99156.78;5057065;28;20458;-51
2022/04/06 11:14:33;;;;;;;0.30;0.20;;;;;;;14.81;67.37;99152.47;5049953;28;20579;-51
2022/04/06 11:16:59;;;;;;;0.30;0.20;;;;;;;15.22;64.54;99148.06;5072834;28;20545;-51
2022/04/06 11:19:26;;;;;;;0.30;0.20;;;;;;;15.13;60.60;99149.53;5072806;28;20993;-51
2022/04/06 11:21:59;;;;;;;14.27;2.23;;;;;;;15.25;59.82;99150.53;5068380;28;20958;-51
2022/04/06 11:24:27;;;;;;;0.30;0.20;;;;;;;15.61;60.58;99148.09;5073074;28;20815;-52
2022/04/06 11:26:54;;;;;;;8.80;1.47;;;;;;;15.08;58.41;99155.19;5072802;28;20445;-51
2022/04/06 11:29:28;;;;;;;0.30;0.20;;;;;;;14.81;59.55;99154.28;5072752;28;20502;-51
2022/04/06 11:32:04;;;;;;;0.30;0.20;;;;;;;14.71;60.28;99134.44;5072522;28;20446;-51
2022/04/06 11:34:35;;;;;;;0.30;0.20;;;;;;;14.76;59.39;99140.34;5070767;28;20481;-51
2022/04/06 11:37:04;;;;;;;0.30;0.20;;;;;;;15.09;59.60;99130.13;5073109;28;20457;-51
2022/04/06 11:39:31;;;;;;;0.30;0.20;;;;;;;14.81;58.60;99138.25;5072861;28;20548;-51
2022/04/06 11:41:59;;;;;;;0.30;0.20;;;;;;;15.03;59.47;99132.34;5074351;28;20996;-51
2022/04/06 11:44:26;;;;;;;0.30;0.20;;;;;;;15.19;60.17;99140.22;5072436;28;20445;-51
2022/04/06 11:46:54;;;;;;;7.20;1.90;;;;;;;15.34;58.19;99131.16;5072763;28;20488;-51